sensor_id;sensor_type;location;lat;lon;timestamp;temperature;humidity
2459;DHT22;1241;50.920;6.936;2022-11-03T00:04:10;10.10;99.90
2459;DHT22;1241;50.920;6.936;2022-11-03T00:06:37;10.10;99.90
2459;DHT22;1241;50.920;6.936;2022-11-03T00:09:05;10.20;99.90
2459;DHT22;1241;50.920;6.936;2022-11-03T00:11:33;10.20;99.90
2459;DHT22;1241;50.920;6.936;2022-11-03T00:13:59;10.20;99.90
2459;DHT22;1241;50.920;6.936;2022-11-03T00:16:25;10.30;99.90
2459;DHT22;1241;50.920;6.936;2022-11-03T00:18:51;10.40;99.90
2459;DHT22;1241;50.920;6.936;2022-11-03T00:21:17;10.30;99.90
2459;DHT22;1241;50.920;6.936;2022-11-03T00:23:44;10.40;99.90
2459;DHT22;1241;50.920;6.936;2022-11-03T00:28:41;10.40;99.90
2459;DHT22;1241;50.920;6.936;2022-11-03T00:33:35;10.40;99.90
2459;DHT22;1241;50.920;6.936;2022-11-03T00:36:02;10.40;99.90
2459;DHT22;1241;50.920;6.936;2022-11-03T00:38:29;10.40;99.90
2459;DHT22;1241;50.920;6.936;2022-11-03T00:40:57;10.50;99.90
2459;DHT22;1241;50.920;6.936;2022-11-03T00:43:23;10.50;99.90
2459;DHT22;1241;50.920;6.936;2022-11-03T00:45:50;10.50;99.90
2459;DHT22;1241;50.920;6.936;2022-11-03T00:48:17;10.60;99.90
2459;DHT22;1241;50.920;6.936;2022-11-03T00:51:15;10.50;99.90
2459;DHT22;1241;50.920;6.936;2022-11-03T00:56:17;10.60;99.90
2459;DHT22;1241;50.920;6.936;2022-11-03T00:58:43;10.70;99.90
2459;DHT22;1241;50.920;6.936;2022-11-03T01:01:15;10.70;99.90
2459;DHT22;1241;50.920;6.936;2022-11-03T01:03:44;10.60;99.90
2459;DHT22;1241;50.920;6.936;2022-11-03T01:06:28;10.60;99.90
2459;DHT22;1241;50.920;6.936;2022-11-03T01:09:13;10.60;99.90
2459;DHT22;1241;50.920;6.936;2022-11-03T01:11:38;10.60;99.90
2459;DHT22;1241;50.920;6.936;2022-11-03T01:14:12;10.70;99.90
2459;DHT22;1241;50.920;6.936;2022-11-03T01:16:38;10.70;99.90
2459;DHT22;1241;50.920;6.936;2022-11-03T01:19:04;10.70;99.90
2459;DHT22;1241;50.920;6.936;2022-11-03T01:21:29;10.80;99.90
2459;DHT22;1241;50.920;6.936;2022-11-03T01:23:55;10.70;99.90
2459;DHT22;1241;50.920;6.936;2022-11-03T01:26:21;10.70;99.90
2459;DHT22;1241;50.920;6.936;2022-11-03T01:28:47;10.70;99.90
2459;DHT22;1241;50.920;6.936;2022-11-03T01:31:16;10.70;99.90
2459;DHT22;1241;50.920;6.936;2022-11-03T01:33:42;10.70;99.90
2459;DHT22;1241;50.920;6.936;2022-11-03T01:36:11;10.70;99.90
2459;DHT22;1241;50.920;6.936;2022-11-03T01:38:37;10.60;99.90
2459;DHT22;1241;50.920;6.936;2022-11-03T01:41:05;10.60;99.90
2459;DHT22;1241;50.920;6.936;2022-11-03T01:43:31;10.60;99.90
2459;DHT22;1241;50.920;6.936;2022-11-03T01:46:02;10.60;99.90
2459;DHT22;1241;50.920;6.936;2022-11-03T01:48:29;10.60;99.90
2459;DHT22;1241;50.920;6.936;2022-11-03T01:50:55;10.60;99.90
2459;DHT22;1241;50.920;6.936;2022-11-03T01:53:21;10.60;99.90
2459;DHT22;1241;50.920;6.936;2022-11-03T01:55:49;10.60;99.90
2459;DHT22;1241;50.920;6.936;2022-11-03T01:58:16;10.60;99.90
2459;DHT22;1241;50.920;6.936;2022-11-03T02:00:43;10.60;99.90
2459;DHT22;1241;50.920;6.936;2022-11-03T02:03:10;10.60;99.90
2459;DHT22;1241;50.920;6.936;2022-11-03T02:05:37;10.60;99.90
2459;DHT22;1241;50.920;6.936;2022-11-03T02:08:08;10.60;99.90
2459;DHT22;1241;50.920;6.936;2022-11-03T02:10:36;10.60;99.90
2459;DHT22;1241;50.920;6.936;2022-11-03T02:13:11;10.50;99.90
2459;DHT22;1241;50.920;6.936;2022-11-03T02:15:41;10.50;99.90
2459;DHT22;1241;50.920;6.936;2022-11-03T02:18:08;10.50;99.90
2459;DHT22;1241;50.920;6.936;2022-11-03T02:20:35;10.50;99.90
2459;DHT22;1241;50.920;6.936;2022-11-03T02:23:20;10.50;99.90
2459;DHT22;1241;50.920;6.936;2022-11-03T02:25:53;10.40;99.90
2459;DHT22;1241;50.920;6.936;2022-11-03T02:28:22;10.40;99.90
2459;DHT22;1241;50.920;6.936;2022-11-03T02:36:44;10.40;99.90
2459;DHT22;1241;50.920;6.936;2022-11-03T02:39:19;10.40;99.90
2459;DHT22;1241;50.920;6.936;2022-11-03T02:41:47;10.40;99.90
2459;DHT22;1241;50.920;6.936;2022-11-03T02:44:16;10.40;99.90
2459;DHT22;1241;50.920;6.936;2022-11-03T02:46:45;10.40;99.90
2459;DHT22;1241;50.920;6.936;2022-11-03T02:49:12;10.40;99.90
2459;DHT22;1241;50.920;6.936;2022-11-03T02:51:38;10.40;99.90
2459;DHT22;1241;50.920;6.936;2022-11-03T02:54:13;10.40;99.90
2459;DHT22;1241;50.920;6.936;2022-11-03T02:56:50;10.30;99.90
2459;DHT22;1241;50.920;6.936;2022-11-03T02:59:26;10.30;99.90
2459;DHT22;1241;50.920;6.936;2022-11-03T03:02:20;10.30;99.90
2459;DHT22;1241;50.920;6.936;2022-11-03T03:04:54;10.40;99.90
2459;DHT22;1241;50.920;6.936;2022-11-03T03:07:43;10.40;99.90
2459;DHT22;1241;50.920;6.936;2022-11-03T03:10:32;10.40;99.90
2459;DHT22;1241;50.920;6.936;2022-11-03T03:12:59;10.30;99.90
2459;DHT22;1241;50.920;6.936;2022-11-03T03:18:15;10.30;99.90
2459;DHT22;1241;50.920;6.936;2022-11-03T03:21:02;10.30;99.90
2459;DHT22;1241;50.920;6.936;2022-11-03T03:23:34;10.40;99.90
2459;DHT22;1241;50.920;6.936;2022-11-03T03:26:09;10.40;99.90
2459;DHT22;1241;50.920;6.936;2022-11-03T03:28:39;10.40;99.90
2459;DHT22;1241;50.920;6.936;2022-11-03T03:31:10;10.40;99.90
2459;DHT22;1241;50.920;6.936;2022-11-03T03:33:38;10.40;99.90
2459;DHT22;1241;50.920;6.936;2022-11-03T03:36:08;10.40;99.90
2459;DHT22;1241;50.920;6.936;2022-11-03T03:38:40;10.50;99.90
2459;DHT22;1241;50.920;6.936;2022-11-03T03:41:08;10.50;99.90
2459;DHT22;1241;50.920;6.936;2022-11-03T03:43:35;10.60;99.90
2459;DHT22;1241;50.920;6.936;2022-11-03T03:46:09;10.50;99.90
2459;DHT22;1241;50.920;6.936;2022-11-03T03:48:36;10.50;99.90
2459;DHT22;1241;50.920;6.936;2022-11-03T03:51:03;10.50;99.90
2459;DHT22;1241;50.920;6.936;2022-11-03T03:53:29;10.40;99.90
2459;DHT22;1241;50.920;6.936;2022-11-03T03:55:55;10.40;99.90
2459;DHT22;1241;50.920;6.936;2022-11-03T03:58:22;10.40;99.90
2459;DHT22;1241;50.920;6.936;2022-11-03T04:00:47;10.40;99.90
2459;DHT22;1241;50.920;6.936;2022-11-03T04:03:19;10.40;99.90
2459;DHT22;1241;50.920;6.936;2022-11-03T04:05:45;10.40;99.90
2459;DHT22;1241;50.920;6.936;2022-11-03T04:08:12;10.30;99.90
2459;DHT22;1241;50.920;6.936;2022-11-03T04:10:38;10.30;99.90
2459;DHT22;1241;50.920;6.936;2022-11-03T04:13:05;10.30;99.90
2459;DHT22;1241;50.920;6.936;2022-11-03T04:15:49;10.30;99.90
2459;DHT22;1241;50.920;6.936;2022-11-03T04:18:34;10.30;99.90
2459;DHT22;1241;50.920;6.936;2022-11-03T04:21:18;10.30;99.90
2459;DHT22;1241;50.920;6.936;2022-11-03T04:24:02;10.20;99.90
2459;DHT22;1241;50.920;6.936;2022-11-03T04:26:28;10.20;99.90
2459;DHT22;1241;50.920;6.936;2022-11-03T04:28:55;10.30;99.90
2459;DHT22;1241;50.920;6.936;2022-11-03T04:31:21;10.20;99.90
2459;DHT22;1241;50.920;6.936;2022-11-03T04:33:48;10.30;99.90
2459;DHT22;1241;50.920;6.936;2022-11-03T04:36:22;10.30;99.90
2459;DHT22;1241;50.920;6.936;2022-11-03T04:38:49;10.30;99.90
2459;DHT22;1241;50.920;6.936;2022-11-03T04:41:19;10.30;99.90
2459;DHT22;1241;50.920;6.936;2022-11-03T04:43:45;10.30;99.90
2459;DHT22;1241;50.920;6.936;2022-11-03T04:46:14;10.40;99.90
2459;DHT22;1241;50.920;6.936;2022-11-03T04:48:40;10.40;99.90
2459;DHT22;1241;50.920;6.936;2022-11-03T04:51:17;10.40;99.90
2459;DHT22;1241;50.920;6.936;2022-11-03T04:53:49;10.40;99.90
2459;DHT22;1241;50.920;6.936;2022-11-03T04:56:19;10.40;99.90
2459;DHT22;1241;50.920;6.936;2022-11-03T04:58:45;10.40;99.90
2459;DHT22;1241;50.920;6.936;2022-11-03T05:01:14;10.40;99.90
2459;DHT22;1241;50.920;6.936;2022-11-03T05:03:42;10.40;99.90
2459;DHT22;1241;50.920;6.936;2022-11-03T05:06:20;10.40;99.90
2459;DHT22;1241;50.920;6.936;2022-11-03T05:08:49;10.50;99.90
2459;DHT22;1241;50.920;6.936;2022-11-03T05:11:38;10.50;99.90
2459;DHT22;1241;50.920;6.936;2022-11-03T05:16:43;10.60;99.90
2459;DHT22;1241;50.920;6.936;2022-11-03T05:19:30;10.60;99.90
2459;DHT22;1241;50.920;6.936;2022-11-03T05:21:57;10.60;99.90
2459;DHT22;1241;50.920;6.936;2022-11-03T05:24:24;10.60;99.90
2459;DHT22;1241;50.920;6.936;2022-11-03T05:26:52;10.70;99.90
2459;DHT22;1241;50.920;6.936;2022-11-03T05:31:47;10.70;99.90
2459;DHT22;1241;50.920;6.936;2022-11-03T05:34:34;10.70;99.90
2459;DHT22;1241;50.920;6.936;2022-11-03T05:39:36;10.70;99.90
2459;DHT22;1241;50.920;6.936;2022-11-03T05:44:49;10.80;99.90
2459;DHT22;1241;50.920;6.936;2022-11-03T05:47:26;10.80;99.90
2459;DHT22;1241;50.920;6.936;2022-11-03T05:49:59;10.90;99.90
2459;DHT22;1241;50.920;6.936;2022-11-03T05:52:27;10.90;99.90
2459;DHT22;1241;50.920;6.936;2022-11-03T05:54:55;10.90;99.90
2459;DHT22;1241;50.920;6.936;2022-11-03T05:57:22;11.00;99.90
2459;DHT22;1241;50.920;6.936;2022-11-03T05:59:50;11.00;99.90
2459;DHT22;1241;50.920;6.936;2022-11-03T06:02:40;11.00;99.90
2459;DHT22;1241;50.920;6.936;2022-11-03T06:05:18;11.10;99.90
2459;DHT22;1241;50.920;6.936;2022-11-03T06:07:44;11.20;99.90
2459;DHT22;1241;50.920;6.936;2022-11-03T06:10:28;11.20;99.90
2459;DHT22;1241;50.920;6.936;2022-11-03T06:12:59;11.20;99.90
2459;DHT22;1241;50.920;6.936;2022-11-03T06:15:30;11.10;99.90
2459;DHT22;1241;50.920;6.936;2022-11-03T06:17:57;11.30;99.90
2459;DHT22;1241;50.920;6.936;2022-11-03T06:20:23;11.20;99.90
2459;DHT22;1241;50.920;6.936;2022-11-03T06:22:51;11.20;99.90
2459;DHT22;1241;50.920;6.936;2022-11-03T06:25:31;11.10;99.90
2459;DHT22;1241;50.920;6.936;2022-11-03T06:28:02;11.10;99.90
2459;DHT22;1241;50.920;6.936;2022-11-03T06:30:33;11.00;99.90
2459;DHT22;1241;50.920;6.936;2022-11-03T06:33:12;11.00;99.90
2459;DHT22;1241;50.920;6.936;2022-11-03T06:35:39;11.00;99.90
2459;DHT22;1241;50.920;6.936;2022-11-03T06:38:11;11.00;99.90
2459;DHT22;1241;50.920;6.936;2022-11-03T06:40:40;11.00;99.90
2459;DHT22;1241;50.920;6.936;2022-11-03T06:43:21;11.00;99.90
2459;DHT22;1241;50.920;6.936;2022-11-03T06:45:52;11.00;99.90
2459;DHT22;1241;50.920;6.936;2022-11-03T06:48:23;11.00;99.90
2459;DHT22;1241;50.920;6.936;2022-11-03T06:50:49;11.10;99.90
2459;DHT22;1241;50.920;6.936;2022-11-03T06:53:30;11.10;99.90
2459;DHT22;1241;50.920;6.936;2022-11-03T06:55:57;11.10;99.90
2459;DHT22;1241;50.920;6.936;2022-11-03T06:58:29;11.10;99.90
2459;DHT22;1241;50.920;6.936;2022-11-03T07:00:59;11.10;99.90
2459;DHT22;1241;50.920;6.936;2022-11-03T07:03:29;11.10;99.90
2459;DHT22;1241;50.920;6.936;2022-11-03T07:06:12;11.10;99.90
2459;DHT22;1241;50.920;6.936;2022-11-03T07:08:44;11.10;99.90
2459;DHT22;1241;50.920;6.936;2022-11-03T07:11:15;11.10;99.90
2459;DHT22;1241;50.920;6.936;2022-11-03T07:13:41;11.10;99.90
2459;DHT22;1241;50.920;6.936;2022-11-03T07:18:45;11.20;99.90
2459;DHT22;1241;50.920;6.936;2022-11-03T07:21:35;11.20;99.90
2459;DHT22;1241;50.920;6.936;2022-11-03T07:24:23;11.30;99.90
2459;DHT22;1241;50.920;6.936;2022-11-03T07:27:00;11.30;99.90
2459;DHT22;1241;50.920;6.936;2022-11-03T07:29:28;11.40;99.90
2459;DHT22;1241;50.920;6.936;2022-11-03T07:31:56;11.50;99.90
2459;DHT22;1241;50.920;6.936;2022-11-03T07:34:28;11.60;99.90
2459;DHT22;1241;50.920;6.936;2022-11-03T07:36:57;11.60;99.90
2459;DHT22;1241;50.920;6.936;2022-11-03T07:39:23;11.80;99.90
2459;DHT22;1241;50.920;6.936;2022-11-03T07:41:50;11.90;99.90
2459;DHT22;1241;50.920;6.936;2022-11-03T07:44:19;12.00;99.90
2459;DHT22;1241;50.920;6.936;2022-11-03T07:46:48;12.10;99.90
2459;DHT22;1241;50.920;6.936;2022-11-03T07:49:28;12.30;99.90
2459;DHT22;1241;50.920;6.936;2022-11-03T07:51:56;12.40;99.90
2459;DHT22;1241;50.920;6.936;2022-11-03T07:54:27;12.60;99.90
2459;DHT22;1241;50.920;6.936;2022-11-03T07:56:59;12.80;99.90
2459;DHT22;1241;50.920;6.936;2022-11-03T07:59:27;13.00;99.90
2459;DHT22;1241;50.920;6.936;2022-11-03T08:01:55;13.20;99.90
2459;DHT22;1241;50.920;6.936;2022-11-03T08:04:32;13.30;99.90
2459;DHT22;1241;50.920;6.936;2022-11-03T08:06:59;13.40;99.90
2459;DHT22;1241;50.920;6.936;2022-11-03T08:09:25;13.60;99.90
2459;DHT22;1241;50.920;6.936;2022-11-03T08:11:51;13.70;99.90
2459;DHT22;1241;50.920;6.936;2022-11-03T08:14:17;13.80;99.90
2459;DHT22;1241;50.920;6.936;2022-11-03T08:16:43;13.90;99.90
2459;DHT22;1241;50.920;6.936;2022-11-03T08:19:09;13.90;99.90
2459;DHT22;1241;50.920;6.936;2022-11-03T08:21:35;14.00;99.90
2459;DHT22;1241;50.920;6.936;2022-11-03T08:24:00;14.10;99.90
2459;DHT22;1241;50.920;6.936;2022-11-03T08:26:26;14.00;99.90
2459;DHT22;1241;50.920;6.936;2022-11-03T08:28:52;14.00;99.90
2459;DHT22;1241;50.920;6.936;2022-11-03T08:31:18;14.00;99.90
2459;DHT22;1241;50.920;6.936;2022-11-03T08:33:44;13.90;99.90
2459;DHT22;1241;50.920;6.936;2022-11-03T08:36:10;14.00;99.90
2459;DHT22;1241;50.920;6.936;2022-11-03T08:38:36;14.00;99.90
2459;DHT22;1241;50.920;6.936;2022-11-03T08:41:03;14.00;99.90
2459;DHT22;1241;50.920;6.936;2022-11-03T08:43:29;14.00;99.90
2459;DHT22;1241;50.920;6.936;2022-11-03T08:45:54;14.10;99.90
2459;DHT22;1241;50.920;6.936;2022-11-03T08:48:21;14.10;99.90
2459;DHT22;1241;50.920;6.936;2022-11-03T08:50:47;14.20;99.90
2459;DHT22;1241;50.920;6.936;2022-11-03T08:53:15;14.20;99.90
2459;DHT22;1241;50.920;6.936;2022-11-03T08:55:41;14.20;99.90
2459;DHT22;1241;50.920;6.936;2022-11-03T08:58:07;14.20;99.90
2459;DHT22;1241;50.920;6.936;2022-11-03T09:00:33;14.30;99.90
2459;DHT22;1241;50.920;6.936;2022-11-03T09:03:00;14.30;99.90
2459;DHT22;1241;50.920;6.936;2022-11-03T09:05:26;14.40;99.90
2459;DHT22;1241;50.920;6.936;2022-11-03T09:07:52;14.50;99.90
2459;DHT22;1241;50.920;6.936;2022-11-03T09:10:18;14.60;99.90
2459;DHT22;1241;50.920;6.936;2022-11-03T09:12:43;14.50;99.90
2459;DHT22;1241;50.920;6.936;2022-11-03T09:15:09;14.60;99.90
2459;DHT22;1241;50.920;6.936;2022-11-03T09:17:36;14.50;99.90
2459;DHT22;1241;50.920;6.936;2022-11-03T09:20:02;14.60;99.90
2459;DHT22;1241;50.920;6.936;2022-11-03T09:22:28;14.60;99.90
2459;DHT22;1241;50.920;6.936;2022-11-03T09:24:54;14.60;99.90
2459;DHT22;1241;50.920;6.936;2022-11-03T09:27:20;14.60;99.90
2459;DHT22;1241;50.920;6.936;2022-11-03T09:29:45;14.70;99.90
2459;DHT22;1241;50.920;6.936;2022-11-03T09:32:11;14.70;99.90
2459;DHT22;1241;50.920;6.936;2022-11-03T09:34:37;14.80;99.90
2459;DHT22;1241;50.920;6.936;2022-11-03T09:37:02;14.80;99.90
2459;DHT22;1241;50.920;6.936;2022-11-03T09:39:28;14.80;99.90
2459;DHT22;1241;50.920;6.936;2022-11-03T09:41:55;14.60;99.90
2459;DHT22;1241;50.920;6.936;2022-11-03T09:44:23;14.60;99.90
2459;DHT22;1241;50.920;6.936;2022-11-03T09:46:49;14.50;99.90
2459;DHT22;1241;50.920;6.936;2022-11-03T09:49:16;14.50;99.90
2459;DHT22;1241;50.920;6.936;2022-11-03T09:51:42;14.40;99.90
2459;DHT22;1241;50.920;6.936;2022-11-03T09:54:12;14.40;99.90
2459;DHT22;1241;50.920;6.936;2022-11-03T09:56:38;14.30;99.90
2459;DHT22;1241;50.920;6.936;2022-11-03T09:59:19;14.30;99.90
2459;DHT22;1241;50.920;6.936;2022-11-03T10:01:46;14.30;99.90
2459;DHT22;1241;50.920;6.936;2022-11-03T10:04:15;14.30;99.90
2459;DHT22;1241;50.920;6.936;2022-11-03T10:06:43;14.30;99.90
2459;DHT22;1241;50.920;6.936;2022-11-03T10:09:16;14.30;99.90
2459;DHT22;1241;50.920;6.936;2022-11-03T10:11:44;14.40;99.90
2459;DHT22;1241;50.920;6.936;2022-11-03T10:14:13;14.40;99.90
2459;DHT22;1241;50.920;6.936;2022-11-03T10:16:40;14.40;99.90
2459;DHT22;1241;50.920;6.936;2022-11-03T10:19:11;14.50;99.90
2459;DHT22;1241;50.920;6.936;2022-11-03T10:21:39;14.40;99.90
2459;DHT22;1241;50.920;6.936;2022-11-03T10:24:09;14.50;99.90
2459;DHT22;1241;50.920;6.936;2022-11-03T10:29:08;14.50;99.90
2459;DHT22;1241;50.920;6.936;2022-11-03T10:31:44;14.60;99.90
2459;DHT22;1241;50.920;6.936;2022-11-03T10:34:40;14.60;99.90
2459;DHT22;1241;50.920;6.936;2022-11-03T10:37:23;14.70;99.90
2459;DHT22;1241;50.920;6.936;2022-11-03T10:39:54;14.60;99.90
2459;DHT22;1241;50.920;6.936;2022-11-03T10:44:53;14.60;99.90
2459;DHT22;1241;50.920;6.936;2022-11-03T10:47:23;14.50;99.90
2459;DHT22;1241;50.920;6.936;2022-11-03T10:49:49;14.40;99.90
2459;DHT22;1241;50.920;6.936;2022-11-03T10:52:24;14.40;99.90
2459;DHT22;1241;50.920;6.936;2022-11-03T10:54:53;14.50;99.90
2459;DHT22;1241;50.920;6.936;2022-11-03T10:57:21;14.40;99.90
2459;DHT22;1241;50.920;6.936;2022-11-03T10:59:49;14.30;99.90
2459;DHT22;1241;50.920;6.936;2022-11-03T11:02:26;14.30;99.90
2459;DHT22;1241;50.920;6.936;2022-11-03T11:04:58;14.20;99.90
2459;DHT22;1241;50.920;6.936;2022-11-03T11:07:38;14.20;99.90
2459;DHT22;1241;50.920;6.936;2022-11-03T11:10:15;14.20;99.90
2459;DHT22;1241;50.920;6.936;2022-11-03T11:13:43;14.20;99.90
2459;DHT22;1241;50.920;6.936;2022-11-03T11:15:56;14.20;99.90
2459;DHT22;1241;50.920;6.936;2022-11-03T11:20:54;14.40;99.90
2459;DHT22;1241;50.920;6.936;2022-11-03T11:28:31;14.40;99.90
2459;DHT22;1241;50.920;6.936;2022-11-03T11:30:57;14.40;99.90
2459;DHT22;1241;50.920;6.936;2022-11-03T11:33:26;14.40;99.90
2459;DHT22;1241;50.920;6.936;2022-11-03T11:41:16;14.40;99.90
2459;DHT22;1241;50.920;6.936;2022-11-03T11:43:42;14.40;99.90
2459;DHT22;1241;50.920;6.936;2022-11-03T11:46:34;14.50;99.90
2459;DHT22;1241;50.920;6.936;2022-11-03T11:49:15;14.50;99.90
2459;DHT22;1241;50.920;6.936;2022-11-03T11:51:41;14.50;99.90
2459;DHT22;1241;50.920;6.936;2022-11-03T11:54:10;14.50;99.90
2459;DHT22;1241;50.920;6.936;2022-11-03T11:56:42;14.50;99.90
2459;DHT22;1241;50.920;6.936;2022-11-03T11:59:20;14.40;99.90
2459;DHT22;1241;50.920;6.936;2022-11-03T12:01:51;14.30;99.90
2459;DHT22;1241;50.920;6.936;2022-11-03T12:04:27;14.30;99.90
2459;DHT22;1241;50.920;6.936;2022-11-03T12:06:57;14.20;99.90
2459;DHT22;1241;50.920;6.936;2022-11-03T12:09:25;14.10;99.90
2459;DHT22;1241;50.920;6.936;2022-11-03T12:11:59;14.00;99.90
2459;DHT22;1241;50.920;6.936;2022-11-03T12:14:37;13.90;99.90
2459;DHT22;1241;50.920;6.936;2022-11-03T12:19:45;13.80;99.90
2459;DHT22;1241;50.920;6.936;2022-11-03T12:22:37;13.90;99.90
2459;DHT22;1241;50.920;6.936;2022-11-03T12:25:05;13.90;99.90
2459;DHT22;1241;50.920;6.936;2022-11-03T12:30:00;14.10;99.90
2459;DHT22;1241;50.920;6.936;2022-11-03T12:32:30;14.20;99.90
2459;DHT22;1241;50.920;6.936;2022-11-03T12:34:55;14.30;99.90
2459;DHT22;1241;50.920;6.936;2022-11-03T12:37:22;14.20;99.90
2459;DHT22;1241;50.920;6.936;2022-11-03T12:39:48;14.20;99.90
2459;DHT22;1241;50.920;6.936;2022-11-03T12:42:13;14.20;99.90
2459;DHT22;1241;50.920;6.936;2022-11-03T12:44:39;14.20;99.90
2459;DHT22;1241;50.920;6.936;2022-11-03T12:47:05;14.20;99.90
2459;DHT22;1241;50.920;6.936;2022-11-03T12:49:30;14.10;99.90
2459;DHT22;1241;50.920;6.936;2022-11-03T12:51:56;14.10;99.90
2459;DHT22;1241;50.920;6.936;2022-11-03T12:54:30;14.00;99.90
2459;DHT22;1241;50.920;6.936;2022-11-03T12:56:56;14.00;99.90
2459;DHT22;1241;50.920;6.936;2022-11-03T12:59:22;13.90;99.90
2459;DHT22;1241;50.920;6.936;2022-11-03T13:01:47;13.90;99.90
2459;DHT22;1241;50.920;6.936;2022-11-03T13:04:13;13.90;99.90
2459;DHT22;1241;50.920;6.936;2022-11-03T13:06:39;13.90;99.90
2459;DHT22;1241;50.920;6.936;2022-11-03T13:09:04;14.00;99.90
2459;DHT22;1241;50.920;6.936;2022-11-03T13:11:30;13.90;99.90
2459;DHT22;1241;50.920;6.936;2022-11-03T13:14:14;14.00;99.90
2459;DHT22;1241;50.920;6.936;2022-11-03T13:16:40;14.00;99.90
2459;DHT22;1241;50.920;6.936;2022-11-03T13:19:05;14.00;99.90
2459;DHT22;1241;50.920;6.936;2022-11-03T13:21:31;13.90;99.90
2459;DHT22;1241;50.920;6.936;2022-11-03T13:23:57;14.00;99.90
2459;DHT22;1241;50.920;6.936;2022-11-03T13:26:23;13.90;99.90
2459;DHT22;1241;50.920;6.936;2022-11-03T13:28:48;14.00;99.90
2459;DHT22;1241;50.920;6.936;2022-11-03T13:31:14;14.00;99.90
2459;DHT22;1241;50.920;6.936;2022-11-03T13:33:40;14.00;99.90
2459;DHT22;1241;50.920;6.936;2022-11-03T13:36:05;13.90;99.90
2459;DHT22;1241;50.920;6.936;2022-11-03T13:38:31;14.00;99.90
2459;DHT22;1241;50.920;6.936;2022-11-03T13:40:57;14.00;99.90
2459;DHT22;1241;50.920;6.936;2022-11-03T13:43:22;14.00;99.90
2459;DHT22;1241;50.920;6.936;2022-11-03T13:45:48;14.10;99.90
2459;DHT22;1241;50.920;6.936;2022-11-03T13:48:14;14.10;99.90
2459;DHT22;1241;50.920;6.936;2022-11-03T13:50:43;14.10;99.90
2459;DHT22;1241;50.920;6.936;2022-11-03T13:53:09;14.00;99.90
2459;DHT22;1241;50.920;6.936;2022-11-03T13:55:35;13.90;99.90
2459;DHT22;1241;50.920;6.936;2022-11-03T13:58:01;13.90;99.90
2459;DHT22;1241;50.920;6.936;2022-11-03T14:00:26;13.90;99.90
2459;DHT22;1241;50.920;6.936;2022-11-03T14:02:52;13.90;99.90
2459;DHT22;1241;50.920;6.936;2022-11-03T14:05:18;13.90;99.90
2459;DHT22;1241;50.920;6.936;2022-11-03T14:07:43;13.90;99.90
2459;DHT22;1241;50.920;6.936;2022-11-03T14:10:09;13.90;99.90
2459;DHT22;1241;50.920;6.936;2022-11-03T14:12:35;13.90;99.90
2459;DHT22;1241;50.920;6.936;2022-11-03T14:15:03;13.80;99.90
2459;DHT22;1241;50.920;6.936;2022-11-03T14:17:30;13.80;99.90
2459;DHT22;1241;50.920;6.936;2022-11-03T14:19:56;13.90;99.90
2459;DHT22;1241;50.920;6.936;2022-11-03T14:22:22;13.90;99.90
2459;DHT22;1241;50.920;6.936;2022-11-03T14:24:49;13.90;99.90
2459;DHT22;1241;50.920;6.936;2022-11-03T14:27:16;13.90;99.90
2459;DHT22;1241;50.920;6.936;2022-11-03T14:29:43;13.90;99.90
2459;DHT22;1241;50.920;6.936;2022-11-03T14:32:12;13.80;99.90
2459;DHT22;1241;50.920;6.936;2022-11-03T14:34:37;13.80;99.90
2459;DHT22;1241;50.920;6.936;2022-11-03T14:37:04;13.80;99.90
2459;DHT22;1241;50.920;6.936;2022-11-03T14:39:30;13.70;99.90
2459;DHT22;1241;50.920;6.936;2022-11-03T14:41:56;13.70;99.90
2459;DHT22;1241;50.920;6.936;2022-11-03T14:44:32;13.60;99.90
2459;DHT22;1241;50.920;6.936;2022-11-03T14:46:59;13.40;99.90
2459;DHT22;1241;50.920;6.936;2022-11-03T14:49:26;13.40;99.90
2459;DHT22;1241;50.920;6.936;2022-11-03T14:51:52;13.40;99.90
2459;DHT22;1241;50.920;6.936;2022-11-03T14:54:18;13.30;99.90
2459;DHT22;1241;50.920;6.936;2022-11-03T14:56:44;13.20;99.90
2459;DHT22;1241;50.920;6.936;2022-11-03T14:59:09;13.20;99.90
2459;DHT22;1241;50.920;6.936;2022-11-03T15:01:35;13.00;99.90
2459;DHT22;1241;50.920;6.936;2022-11-03T15:04:03;13.00;99.90
2459;DHT22;1241;50.920;6.936;2022-11-03T15:06:29;12.90;99.90
2459;DHT22;1241;50.920;6.936;2022-11-03T15:08:54;12.90;99.90
2459;DHT22;1241;50.920;6.936;2022-11-03T15:11:20;12.90;99.90
2459;DHT22;1241;50.920;6.936;2022-11-03T15:13:46;12.90;99.90
2459;DHT22;1241;50.920;6.936;2022-11-03T15:16:12;12.70;99.90
2459;DHT22;1241;50.920;6.936;2022-11-03T15:18:37;12.70;99.90
2459;DHT22;1241;50.920;6.936;2022-11-03T15:21:03;12.70;99.90
2459;DHT22;1241;50.920;6.936;2022-11-03T15:23:29;12.60;99.90
2459;DHT22;1241;50.920;6.936;2022-11-03T15:25:55;12.60;99.90
2459;DHT22;1241;50.920;6.936;2022-11-03T15:28:21;12.40;99.90
2459;DHT22;1241;50.920;6.936;2022-11-03T15:30:47;12.20;99.90
2459;DHT22;1241;50.920;6.936;2022-11-03T15:33:13;12.30;99.90
2459;DHT22;1241;50.920;6.936;2022-11-03T15:35:39;12.30;99.90
2459;DHT22;1241;50.920;6.936;2022-11-03T15:38:04;12.30;99.90
2459;DHT22;1241;50.920;6.936;2022-11-03T15:40:30;12.10;99.90
2459;DHT22;1241;50.920;6.936;2022-11-03T15:42:56;12.00;99.90
2459;DHT22;1241;50.920;6.936;2022-11-03T15:45:22;12.00;99.90
2459;DHT22;1241;50.920;6.936;2022-11-03T15:47:48;12.00;99.90
2459;DHT22;1241;50.920;6.936;2022-11-03T15:50:13;11.90;99.90
2459;DHT22;1241;50.920;6.936;2022-11-03T15:52:40;11.90;99.90
2459;DHT22;1241;50.920;6.936;2022-11-03T15:55:07;11.80;99.90
2459;DHT22;1241;50.920;6.936;2022-11-03T15:57:33;11.80;99.90
2459;DHT22;1241;50.920;6.936;2022-11-03T15:59:59;11.80;99.90
2459;DHT22;1241;50.920;6.936;2022-11-03T16:02:25;11.80;99.90
2459;DHT22;1241;50.920;6.936;2022-11-03T16:04:51;11.80;99.90
2459;DHT22;1241;50.920;6.936;2022-11-03T16:07:17;11.70;99.90
2459;DHT22;1241;50.920;6.936;2022-11-03T16:09:42;11.80;99.90
2459;DHT22;1241;50.920;6.936;2022-11-03T16:12:08;11.80;99.90
2459;DHT22;1241;50.920;6.936;2022-11-03T16:14:34;11.80;99.90
2459;DHT22;1241;50.920;6.936;2022-11-03T16:16:59;11.70;99.90
2459;DHT22;1241;50.920;6.936;2022-11-03T16:19:25;11.70;99.90
2459;DHT22;1241;50.920;6.936;2022-11-03T16:21:51;11.80;99.90
2459;DHT22;1241;50.920;6.936;2022-11-03T16:24:17;11.80;99.90
2459;DHT22;1241;50.920;6.936;2022-11-03T16:26:43;11.80;99.90
2459;DHT22;1241;50.920;6.936;2022-11-03T16:29:08;11.80;99.90
2459;DHT22;1241;50.920;6.936;2022-11-03T16:31:34;11.80;99.90
2459;DHT22;1241;50.920;6.936;2022-11-03T16:34:00;11.90;99.90
2459;DHT22;1241;50.920;6.936;2022-11-03T16:36:27;11.90;99.90
2459;DHT22;1241;50.920;6.936;2022-11-03T16:38:53;11.90;99.90
2459;DHT22;1241;50.920;6.936;2022-11-03T16:41:19;12.00;99.90
2459;DHT22;1241;50.920;6.936;2022-11-03T16:43:44;12.00;99.90
2459;DHT22;1241;50.920;6.936;2022-11-03T16:46:11;12.00;99.90
2459;DHT22;1241;50.920;6.936;2022-11-03T16:48:37;12.10;99.90
2459;DHT22;1241;50.920;6.936;2022-11-03T16:51:02;12.10;99.90
2459;DHT22;1241;50.920;6.936;2022-11-03T16:53:28;12.20;99.90
2459;DHT22;1241;50.920;6.936;2022-11-03T16:55:54;12.20;99.90
2459;DHT22;1241;50.920;6.936;2022-11-03T16:58:19;12.30;99.90
2459;DHT22;1241;50.920;6.936;2022-11-03T17:00:45;12.30;99.90
2459;DHT22;1241;50.920;6.936;2022-11-03T17:03:11;12.30;99.90
2459;DHT22;1241;50.920;6.936;2022-11-03T17:05:36;12.40;99.90
2459;DHT22;1241;50.920;6.936;2022-11-03T17:08:02;12.50;99.90
2459;DHT22;1241;50.920;6.936;2022-11-03T17:10:28;12.50;99.90